sensor_id;sensor_type;location;lat;lon;timestamp;pressure;altitude;pressure_sealevel;temperature;humidity
56414;BME280;42318;48.452;19.526;2023-08-08T00:04:40;98073.63;;;22.57;59.14
56414;BME280;42318;48.452;19.526;2023-08-08T00:09:41;98074.97;;;22.60;59.09
56414;BME280;42318;48.452;19.526;2023-08-08T00:14:41;98081.81;;;22.57;59.17
56414;BME280;42318;48.452;19.526;2023-08-08T00:19:42;98079.91;;;22.58;59.08
56414;BME280;42318;48.452;19.526;2023-08-08T00:24:43;98089.47;;;22.55;58.96
56414;BME280;42318;48.452;19.526;2023-08-08T00:29:44;98097.91;;;22.59;59.55
56414;BME280;42318;48.452;19.526;2023-08-08T00:34:46;98105.56;;;22.56;59.37
56414;BME280;42318;48.452;19.526;2023-08-08T00:39:46;98121.13;;;22.56;59.28
56414;BME280;42318;48.452;19.526;2023-08-08T00:44:48;98124.69;;;22.56;59.37
56414;BME280;42318;48.452;19.526;2023-08-08T00:49:49;98128.75;;;22.54;59.12
56414;BME280;42318;48.452;19.526;2023-08-08T00:54:50;98139.97;;;22.58;59.33
56414;BME280;42318;48.452;19.526;2023-08-08T00:59:51;98138.88;;;22.53;59.08
56414;BME280;42318;48.452;19.526;2023-08-08T01:04:52;98146.81;;;22.55;59.36
56414;BME280;42318;48.452;19.526;2023-08-08T01:09:57;98141.59;;;22.53;58.99
56414;BME280;42318;48.452;19.526;2023-08-08T01:15:06;98139.69;;;22.54;59.55
56414;BME280;42318;48.452;19.526;2023-08-08T01:20:09;98142.69;;;22.52;59.38
56414;BME280;42318;48.452;19.526;2023-08-08T01:25:11;98142.41;;;22.54;59.49
56414;BME280;42318;48.452;19.526;2023-08-08T01:30:12;98145.72;;;22.51;59.53
56414;BME280;42318;48.452;19.526;2023-08-08T01:35:13;98138.63;;;22.50;59.37
56414;BME280;42318;48.452;19.526;2023-08-08T01:40:17;98141.88;;;22.52;59.31
56414;BME280;42318;48.452;19.526;2023-08-08T01:45:19;98141.63;;;22.48;59.35
56414;BME280;42318;48.452;19.526;2023-08-08T01:50:20;98144.06;;;22.50;59.08
56414;BME280;42318;48.452;19.526;2023-08-08T01:55:22;98134.53;;;22.47;59.19
56414;BME280;42318;48.452;19.526;2023-08-08T02:00:23;98129.31;;;22.51;59.29
56414;BME280;42318;48.452;19.526;2023-08-08T02:05:24;98128.25;;;22.47;58.98
56414;BME280;42318;48.452;19.526;2023-08-08T02:10:24;98139.72;;;22.49;59.61
56414;BME280;42318;48.452;19.526;2023-08-08T02:15:25;98143.00;;;22.46;59.29
56414;BME280;42318;48.452;19.526;2023-08-08T02:20:26;98146.28;;;22.48;59.53
56414;BME280;42318;48.452;19.526;2023-08-08T02:25:27;98146.00;;;22.44;59.52
56414;BME280;42318;48.452;19.526;2023-08-08T02:30:28;98155.03;;;22.45;59.31
56414;BME280;42318;48.452;19.526;2023-08-08T02:35:29;98155.03;;;22.45;59.35
56414;BME280;42318;48.452;19.526;2023-08-08T02:40:30;98156.94;;;22.44;59.21
56414;BME280;42318;48.452;19.526;2023-08-08T02:45:31;98157.75;;;22.45;59.38
56414;BME280;42318;48.452;19.526;2023-08-08T02:50:32;98163.78;;;22.42;59.15
56414;BME280;42318;48.452;19.526;2023-08-08T02:55:32;98151.47;;;22.44;59.68
56414;BME280;42318;48.452;19.526;2023-08-08T03:00:33;98147.13;;;22.38;58.96
56414;BME280;42318;48.452;19.526;2023-08-08T03:05:34;98161.56;;;22.44;59.14
56414;BME280;42318;48.452;19.526;2023-08-08T03:10:35;98168.69;;;22.40;59.28
56414;BME280;42318;48.452;19.526;2023-08-08T03:15:36;98182.88;;;22.42;59.16
56414;BME280;42318;48.452;19.526;2023-08-08T03:20:37;98175.50;;;22.42;59.26
56414;BME280;42318;48.452;19.526;2023-08-08T03:25:37;98175.53;;;22.37;59.07
56414;BME280;42318;48.452;19.526;2023-08-08T03:30:38;98187.25;;;22.43;59.30
56414;BME280;42318;48.452;19.526;2023-08-08T03:35:39;98199.81;;;22.39;58.97
56414;BME280;42318;48.452;19.526;2023-08-08T03:40:40;98200.34;;;22.41;58.83
56414;BME280;42318;48.452;19.526;2023-08-08T03:45:40;98197.09;;;22.39;58.60
56414;BME280;42318;48.452;19.526;2023-08-08T03:50:41;98216.72;;;22.41;58.81
56414;BME280;42318;48.452;19.526;2023-08-08T03:55:42;98219.75;;;22.39;58.71
56414;BME280;42318;48.452;19.526;2023-08-08T04:00:43;98220.28;;;22.36;58.30
56414;BME280;42318;48.452;19.526;2023-08-08T04:05:47;98227.94;;;22.39;58.33
56414;BME280;42318;48.452;19.526;2023-08-08T04:10:47;98225.22;;;22.34;58.21
56414;BME280;42318;48.452;19.526;2023-08-08T04:15:48;98228.22;;;22.38;58.07
56414;BME280;42318;48.452;19.526;2023-08-08T04:20:52;98246.78;;;22.36;58.65
56414;BME280;42318;48.452;19.526;2023-08-08T04:25:53;98259.59;;;22.35;58.00
56414;BME280;42318;48.452;19.526;2023-08-08T04:30:56;98248.97;;;22.34;58.10
56414;BME280;42318;48.452;19.526;2023-08-08T04:35:57;98256.63;;;22.32;57.89
56414;BME280;42318;48.452;19.526;2023-08-08T04:40:59;98271.63;;;22.34;58.31
56414;BME280;42318;48.452;19.526;2023-08-08T04:46:00;98276.28;;;22.29;57.85
56414;BME280;42318;48.452;19.526;2023-08-08T04:51:01;98267.25;;;22.28;57.87
56414;BME280;42318;48.452;19.526;2023-08-08T04:56:02;98287.19;;;22.29;58.27
56414;BME280;42318;48.452;19.526;2023-08-08T05:01:03;98271.91;;;22.28;58.16
56414;BME280;42318;48.452;19.526;2023-08-08T05:06:04;98294.00;;;22.31;58.20
56414;BME280;42318;48.452;19.526;2023-08-08T05:11:05;98295.38;;;22.29;57.86
56414;BME280;42318;48.452;19.526;2023-08-08T05:16:06;98306.28;;;22.29;57.91
56414;BME280;42318;48.452;19.526;2023-08-08T05:21:07;98315.84;;;22.26;58.00
56414;BME280;42318;48.452;19.526;2023-08-08T05:26:07;98326.50;;;22.28;57.88
56414;BME280;42318;48.452;19.526;2023-08-08T05:31:08;98326.22;;;22.24;58.08
56414;BME280;42318;48.452;19.526;2023-08-08T05:36:10;98330.31;;;22.27;57.69
56414;BME280;42318;48.452;19.526;2023-08-08T05:41:11;98337.13;;;22.24;58.27
56414;BME280;42318;48.452;19.526;2023-08-08T05:46:12;98325.41;;;22.23;58.27
56414;BME280;42318;48.452;19.526;2023-08-08T05:51:13;98334.41;;;22.24;57.82
56414;BME280;42318;48.452;19.526;2023-08-08T05:56:14;98342.88;;;22.22;57.92
56414;BME280;42318;48.452;19.526;2023-08-08T06:01:14;98352.69;;;22.23;58.15
56414;BME280;42318;48.452;19.526;2023-08-08T06:06:15;98349.44;;;22.21;58.04
56414;BME280;42318;48.452;19.526;2023-08-08T06:11:16;98355.44;;;22.23;58.22
56414;BME280;42318;48.452;19.526;2023-08-08T06:16:17;98357.88;;;22.20;58.99
56414;BME280;42318;48.452;19.526;2023-08-08T06:21:19;98360.06;;;22.23;58.49
56414;BME280;42318;48.452;19.526;2023-08-08T06:26:23;98360.34;;;22.21;58.57
56414;BME280;42318;48.452;19.526;2023-08-08T06:31:24;98361.97;;;22.22;58.36
56414;BME280;42318;48.452;19.526;2023-08-08T06:36:25;98373.44;;;22.24;58.23
56414;BME280;42318;48.452;19.526;2023-08-08T06:41:26;98375.63;;;22.22;58.10
56414;BME280;42318;48.452;19.526;2023-08-08T06:46:26;98375.63;;;22.22;58.10
56414;BME280;42318;48.452;19.526;2023-08-08T06:51:27;98379.44;;;22.21;58.26
56414;BME280;42318;48.452;19.526;2023-08-08T06:56:29;98371.81;;;22.23;58.06
56414;BME280;42318;48.452;19.526;2023-08-08T07:01:29;98369.34;;;22.22;57.96
56414;BME280;42318;48.452;19.526;2023-08-08T07:06:30;98374.81;;;22.22;58.19
56414;BME280;42318;48.452;19.526;2023-08-08T07:11:31;98372.06;;;22.22;57.97
56414;BME280;42318;48.452;19.526;2023-08-08T07:16:32;98378.34;;;22.22;58.17
56414;BME280;42318;48.452;19.526;2023-08-08T07:21:33;98372.91;;;22.22;58.24
56414;BME280;42318;48.452;19.526;2023-08-08T07:26:34;98371.00;;;22.18;57.99
56414;BME280;42318;48.452;19.526;2023-08-08T07:31:34;98384.91;;;22.21;58.01
56414;BME280;42318;48.452;19.526;2023-08-08T07:36:35;98382.44;;;22.20;58.08
56414;BME280;42318;48.452;19.526;2023-08-08T07:41:36;98388.72;;;22.20;57.88
56414;BME280;42318;48.452;19.526;2023-08-08T07:46:37;98388.19;;;22.18;57.94
56414;BME280;42318;48.452;19.526;2023-08-08T07:51:37;98386.00;;;22.20;57.73
56414;BME280;42318;48.452;19.526;2023-08-08T07:56:38;98384.34;;;22.19;58.23
56414;BME280;42318;48.452;19.526;2023-08-08T08:01:39;98392.28;;;22.21;57.77
56414;BME280;42318;48.452;19.526;2023-08-08T08:06:40;98402.38;;;22.20;58.21
56414;BME280;42318;48.452;19.526;2023-08-08T08:11:41;98403.47;;;22.19;57.94
56414;BME280;42318;48.452;19.526;2023-08-08T08:16:44;98398.00;;;22.19;58.06
56414;BME280;42318;48.452;19.526;2023-08-08T08:21:45;98400.72;;;22.19;57.76
56414;BME280;42318;48.452;19.526;2023-08-08T08:26:46;98396.09;;;22.20;58.02
56414;BME280;42318;48.452;19.526;2023-08-08T08:31:47;98400.19;;;22.17;57.96
56414;BME280;42318;48.452;19.526;2023-08-08T08:36:48;98396.09;;;22.20;57.76
56414;BME280;42318;48.452;19.526;2023-08-08T08:41:54;98405.38;;;22.19;58.03
56414;BME280;42318;48.452;19.526;2023-08-08T08:47:01;98402.09;;;22.17;57.87
56414;BME280;42318;48.452;19.526;2023-08-08T08:52:03;98415.47;;;22.18;58.06
56414;BME280;42318;48.452;19.526;2023-08-08T08:57:07;98408.09;;;22.19;57.66
56414;BME280;42318;48.452;19.526;2023-08-08T09:02:10;98407.00;;;22.20;57.79
56414;BME280;42318;48.452;19.526;2023-08-08T09:07:12;98417.91;;;22.20;58.06
56414;BME280;42318;48.452;19.526;2023-08-08T09:12:13;98413.28;;;22.20;58.07
56414;BME280;42318;48.452;19.526;2023-08-08T09:17:14;98414.38;;;22.19;57.73
56414;BME280;42318;48.452;19.526;2023-08-08T09:22:15;98415.47;;;22.18;57.84
56414;BME280;42318;48.452;19.526;2023-08-08T09:27:16;98406.19;;;22.19;57.90
56414;BME280;42318;48.452;19.526;2023-08-08T09:32:17;98421.47;;;22.20;57.64
56414;BME280;42318;48.452;19.526;2023-08-08T09:37:18;98427.19;;;22.19;57.79
56414;BME280;42318;48.452;19.526;2023-08-08T09:42:20;98429.66;;;22.20;57.65
56414;BME280;42318;48.452;19.526;2023-08-08T09:47:21;98426.38;;;22.18;58.35
56414;BME280;42318;48.452;19.526;2023-08-08T09:52:23;98431.28;;;22.21;57.97
56414;BME280;42318;48.452;19.526;2023-08-08T09:57:25;98417.09;;;22.19;58.87
56414;BME280;42318;48.452;19.526;2023-08-08T10:02:26;98413.28;;;22.20;58.18
56414;BME280;42318;48.452;19.526;2023-08-08T10:07:28;98414.09;;;22.21;58.26
56414;BME280;42318;48.452;19.526;2023-08-08T10:12:29;98397.72;;;22.21;58.20
56414;BME280;42318;48.452;19.526;2023-08-08T10:17:35;98394.47;;;22.19;58.34
56414;BME280;42318;48.452;19.526;2023-08-08T10:22:36;98392.28;;;22.21;58.01
56414;BME280;42318;48.452;19.526;2023-08-08T10:27:39;98382.19;;;22.21;58.10
56414;BME280;42318;48.452;19.526;2023-08-08T10:32:45;98380.53;;;22.20;58.08
56414;BME280;42318;48.452;19.526;2023-08-08T10:37:52;98382.72;;;22.23;58.23
56414;BME280;42318;48.452;19.526;2023-08-08T10:42:54;98379.44;;;22.21;57.71
56414;BME280;42318;48.452;19.526;2023-08-08T10:47:55;98369.88;;;22.24;57.70
56414;BME280;42318;48.452;19.526;2023-08-08T10:52:56;98368.53;;;22.21;58.06
56414;BME280;42318;48.452;19.526;2023-08-08T11:03:01;98362.25;;;22.21;57.87
56414;BME280;42318;48.452;19.526;2023-08-08T11:08:05;98366.63;;;22.22;57.77
56414;BME280;42318;48.452;19.526;2023-08-08T11:13:07;98375.63;;;22.22;58.02
56414;BME280;42318;48.452;19.526;2023-08-08T11:18:08;98363.63;;;22.23;58.08
56414;BME280;42318;48.452;19.526;2023-08-08T11:23:10;98368.25;;;22.23;57.97
56414;BME280;42318;48.452;19.526;2023-08-08T11:28:13;98363.63;;;22.23;57.87
56414;BME280;42318;48.452;19.526;2023-08-08T11:33:14;98347.78;;;22.20;57.94
56414;BME280;42318;48.452;19.526;2023-08-08T11:38:17;98355.44;;;22.23;57.81
56414;BME280;42318;48.452;19.526;2023-08-08T11:43:18;98358.16;;;22.23;57.74
56414;BME280;42318;48.452;19.526;2023-08-08T11:48:20;98358.44;;;22.22;57.72
56414;BME280;42318;48.452;19.526;2023-08-08T11:53:23;98361.97;;;22.22;57.77
56414;BME280;42318;48.452;19.526;2023-08-08T11:58:24;98356.53;;;22.22;57.64
56414;BME280;42318;48.452;19.526;2023-08-08T12:03:26;98363.63;;;22.23;57.61
56414;BME280;42318;48.452;19.526;2023-08-08T12:08:30;98362.78;;;22.23;57.85
56414;BME280;42318;48.452;19.526;2023-08-08T12:13:31;98370.97;;;22.23;57.85
56414;BME280;42318;48.452;19.526;2023-08-08T12:18:32;98388.72;;;22.20;57.80
56414;BME280;42318;48.452;19.526;2023-08-08T12:23:34;98430.22;;;22.22;57.77
56414;BME280;42318;48.452;19.526;2023-08-08T12:28:35;98434.31;;;22.20;57.78
56414;BME280;42318;48.452;19.526;2023-08-08T12:33:36;98447.66;;;22.21;57.91
56414;BME280;42318;48.452;19.526;2023-08-08T12:38:37;98432.38;;;22.20;58.07
56414;BME280;42318;48.452;19.526;2023-08-08T12:43:38;98404.28;;;22.20;57.84
56414;BME280;42318;48.452;19.526;2023-08-08T12:48:40;98433.22;;;22.21;58.00
56414;BME280;42318;48.452;19.526;2023-08-08T12:53:41;98422.03;;;22.22;57.67
56414;BME280;42318;48.452;19.526;2023-08-08T12:58:42;98414.94;;;22.21;57.62
56414;BME280;42318;48.452;19.526;2023-08-08T13:03:43;98407.81;;;22.20;57.97
56414;BME280;42318;48.452;19.526;2023-08-08T13:08:44;98392.53;;;22.19;57.86
56414;BME280;42318;48.452;19.526;2023-08-08T13:13:44;98396.91;;;22.20;57.48
56414;BME280;42318;48.452;19.526;2023-08-08T13:18:45;98397.72;;;22.21;57.54
56414;BME280;42318;48.452;19.526;2023-08-08T13:23:46;98409.75;;;22.20;57.56
56414;BME280;42318;48.452;19.526;2023-08-08T13:28:47;98396.91;;;22.20;57.84
56414;BME280;42318;48.452;19.526;2023-08-08T13:33:48;98388.19;;;22.18;57.30
56414;BME280;42318;48.452;19.526;2023-08-08T13:38:49;98392.53;;;22.19;57.62
56414;BME280;42318;48.452;19.526;2023-08-08T13:43:50;98380.00;;;22.18;57.07
56414;BME280;42318;48.452;19.526;2023-08-08T13:48:51;98376.16;;;22.19;57.38
56414;BME280;42318;48.452;19.526;2023-08-08T13:53:52;98374.81;;;22.17;57.59
56414;BME280;42318;48.452;19.526;2023-08-08T13:58:52;98378.91;;;22.19;57.24
56414;BME280;42318;48.452;19.526;2023-08-08T14:03:53;98379.44;;;22.16;57.49
56414;BME280;42318;48.452;19.526;2023-08-08T14:08:54;98375.34;;;22.19;57.37
56414;BME280;42318;48.452;19.526;2023-08-08T14:13:55;98373.72;;;22.18;57.18
56414;BME280;42318;48.452;19.526;2023-08-08T14:18:56;98381.09;;;22.17;57.57
56414;BME280;42318;48.452;19.526;2023-08-08T14:23:56;98385.44;;;22.18;57.52
56414;BME280;42318;48.452;19.526;2023-08-08T14:28:57;98378.34;;;22.17;57.51
56414;BME280;42318;48.452;19.526;2023-08-08T14:33:58;98385.44;;;22.18;57.36
56414;BME280;42318;48.452;19.526;2023-08-08T14:38:59;98379.44;;;22.16;57.42
56414;BME280;42318;48.452;19.526;2023-08-08T14:43:59;98374.81;;;22.17;57.64
56414;BME280;42318;48.452;19.526;2023-08-08T14:49:00;98379.72;;;22.15;57.17
56414;BME280;42318;48.452;19.526;2023-08-08T14:54:02;98358.16;;;22.13;57.19
56414;BME280;42318;48.452;19.526;2023-08-08T14:59:03;98368.25;;;22.13;57.22
56414;BME280;42318;48.452;19.526;2023-08-08T15:04:04;98367.72;;;22.16;57.26
56414;BME280;42318;48.452;19.526;2023-08-08T15:09:05;98367.44;;;22.12;57.69
56414;BME280;42318;48.452;19.526;2023-08-08T15:14:06;98370.72;;;22.14;57.15
56414;BME280;42318;48.452;19.526;2023-08-08T15:19:07;98363.63;;;22.13;57.42
56414;BME280;42318;48.452;19.526;2023-08-08T15:24:08;98360.88;;;22.13;57.48
56414;BME280;42318;48.452;19.526;2023-08-08T15:29:10;98355.72;;;22.12;57.31
56414;BME280;42318;48.452;19.526;2023-08-08T15:34:11;98349.97;;;22.13;57.39
56414;BME280;42318;48.452;19.526;2023-08-08T15:39:12;98345.84;;;22.11;57.50
56414;BME280;42318;48.452;19.526;2023-08-08T15:44:12;98349.16;;;22.13;57.56
56414;BME280;42318;48.452;19.526;2023-08-08T15:49:13;98349.97;;;22.13;57.83
56414;BME280;42318;48.452;19.526;2023-08-08T15:54:14;98359.50;;;22.11;57.52
56414;BME280;42318;48.452;19.526;2023-08-08T15:59:15;98352.69;;;22.13;57.48
56414;BME280;42318;48.452;19.526;2023-08-08T16:04:16;98364.94;;;22.11;57.94
56414;BME280;42318;48.452;19.526;2023-08-08T16:09:17;98357.34;;;22.13;57.72
56414;BME280;42318;48.452;19.526;2023-08-08T16:14:18;98361.41;;;22.10;57.90
56414;BME280;42318;48.452;19.526;2023-08-08T16:19:18;98366.63;;;22.12;57.61
56414;BME280;42318;48.452;19.526;2023-08-08T16:24:19;98369.34;;;22.12;57.59
56414;BME280;42318;48.452;19.526;2023-08-08T16:29:20;98374.00;;;22.11;57.28
56414;BME280;42318;48.452;19.526;2023-08-08T16:34:21;98370.41;;;22.11;57.67
56414;BME280;42318;48.452;19.526;2023-08-08T16:39:22;98373.41;;;22.09;57.15
56414;BME280;42318;48.452;19.526;2023-08-08T16:44:23;98376.72;;;22.11;57.38
56414;BME280;42318;48.452;19.526;2023-08-08T16:49:24;98388.16;;;22.08;57.61
56414;BME280;42318;48.452;19.526;2023-08-08T16:54:25;98391.41;;;22.10;57.57
56414;BME280;42318;48.452;19.526;2023-08-08T16:59:26;98376.97;;;22.10;57.60
56414;BME280;42318;48.452;19.526;2023-08-08T17:04:27;98377.50;;;22.07;57.21
56414;BME280;42318;48.452;19.526;2023-08-08T17:09:28;98378.88;;;22.09;57.73
56414;BME280;42318;48.452;19.526;2023-08-08T17:14:29;98384.88;;;22.06;57.14
56414;BME280;42318;48.452;19.526;2023-08-08T17:19:30;98390.88;;;22.08;57.55
56414;BME280;42318;48.452;19.526;2023-08-08T17:24:30;98391.16;;;22.07;57.58
56414;BME280;42318;48.452;19.526;2023-08-08T17:29:31;98390.31;;;22.06;57.71
56414;BME280;42318;48.452;19.526;2023-08-08T17:34:32;98394.69;;;22.07;57.69
56414;BME280;42318;48.452;19.526;2023-08-08T17:39:33;98391.41;;;22.05;57.57
56414;BME280;42318;48.452;19.526;2023-08-08T17:44:34;98397.16;;;22.09;57.90
56414;BME280;42318;48.452;19.526;2023-08-08T17:49:35;98397.41;;;22.07;57.73
56414;BME280;42318;48.452;19.526;2023-08-08T17:54:36;98403.44;;;22.09;58.07
56414;BME280;42318;48.452;19.526;2023-08-08T17:59:37;98412.44;;;22.10;59.43
56414;BME280;42318;48.452;19.526;2023-08-08T18:04:37;98407.56;;;22.12;58.37
56414;BME280;42318;48.452;19.526;2023-08-08T18:09:38;98411.09;;;22.12;58.55
56414;BME280;42318;48.452;19.526;2023-08-08T18:14:40;98404.81;;;22.12;59.36
56414;BME280;42318;48.452;19.526;2023-08-08T18:19:40;98409.47;;;22.11;58.52
56414;BME280;42318;48.452;19.526;2023-08-08T18:24:41;98413.81;;;22.12;58.28
56414;BME280;42318;48.452;19.526;2023-08-08T18:29:42;98433.16;;;22.11;58.22
56414;BME280;42318;48.452;19.526;2023-08-08T18:34:43;98431.28;;;22.11;58.29
56414;BME280;42318;48.452;19.526;2023-08-08T18:39:44;98428.56;;;22.11;58.33
56414;BME280;42318;48.452;19.526;2023-08-08T18:44:45;98433.16;;;22.11;58.02
56414;BME280;42318;48.452;19.526;2023-08-08T18:49:46;98447.66;;;22.11;58.22
56414;BME280;42318;48.452;19.526;2023-08-08T18:54:47;98450.91;;;22.08;57.69
56414;BME280;42318;48.452;19.526;2023-08-08T18:59:48;98447.09;;;22.09;57.76
56414;BME280;42318;48.452;19.526;2023-08-08T19:04:49;98444.34;;;22.09;59.27
56414;BME280;42318;48.452;19.526;2023-08-08T19:09:50;98448.72;;;22.10;58.56
56414;BME280;42318;48.452;19.526;2023-08-08T19:14:51;98444.94;;;22.11;59.04
56414;BME280;42318;48.452;19.526;2023-08-08T19:19:52;98450.63;;;22.10;59.92
56414;BME280;42318;48.452;19.526;2023-08-08T19:24:53;98451.22;;;22.12;59.34
56414;BME280;42318;48.452;19.526;2023-08-08T19:29:53;98459.94;;;22.14;59.39
56414;BME280;42318;48.452;19.526;2023-08-08T19:34:54;98458.84;;;22.15;58.88
56414;BME280;42318;48.452;19.526;2023-08-08T19:39:56;98464.59;;;22.13;59.05
56414;BME280;42318;48.452;19.526;2023-08-08T19:44:57;98470.59;;;22.15;59.25
56414;BME280;42318;48.452;19.526;2023-08-08T19:49:58;98473.03;;;22.17;59.36
56414;BME280;42318;48.452;19.526;2023-08-08T19:54:59;98473.59;;;22.14;59.23
56414;BME280;42318;48.452;19.526;2023-08-08T20:00:00;98474.13;;;22.16;59.26
56414;BME280;42318;48.452;19.526;2023-08-08T20:05:01;98467.84;;;22.15;59.29
56414;BME280;42318;48.452;19.526;2023-08-08T20:10:03;98468.41;;;22.12;59.29
56414;BME280;42318;48.452;19.526;2023-08-08T20:15:05;98463.78;;;22.18;59.13
56414;BME280;42318;48.452;19.526;2023-08-08T20:20:08;98464.59;;;22.18;59.47
56414;BME280;42318;48.452;19.526;2023-08-08T20:25:10;98472.22;;;22.16;58.99
56414;BME280;42318;48.452;19.526;2023-08-08T20:30:12;98458.84;;;22.15;59.42
56414;BME280;42318;48.452;19.526;2023-08-08T20:35:13;98475.50;;;22.18;59.28
56414;BME280;42318;48.452;19.526;2023-08-08T20:40:13;98467.84;;;22.15;59.15
56414;BME280;42318;48.452;19.526;2023-08-08T20:45:14;98470.88;;;22.19;58.93
56414;BME280;42318;48.452;19.526;2023-08-08T20:50:15;98466.22;;;22.14;58.91
56414;BME280;42318;48.452;19.526;2023-08-08T20:55:16;98470.59;;;22.15;58.94
56414;BME280;42318;48.452;19.526;2023-08-08T21:00:17;98462.94;;;22.17;59.15
56414;BME280;42318;48.452;19.526;2023-08-08T21:05:18;98467.59;;;22.17;58.83
56414;BME280;42318;48.452;19.526;2023-08-08T21:10:19;98467.84;;;22.15;58.81
56414;BME280;42318;48.452;19.526;2023-08-08T21:15:20;98470.88;;;22.19;59.07
56414;BME280;42318;48.452;19.526;2023-08-08T21:20:20;98473.31;;;22.15;58.97
56414;BME280;42318;48.452;19.526;2023-08-08T21:25:21;98461.53;;;22.10;59.18
56414;BME280;42318;48.452;19.526;2023-08-08T21:30:22;98479.31;;;22.17;59.33
56414;BME280;42318;48.452;19.526;2023-08-08T21:35:23;98470.84;;;22.14;58.82
56414;BME280;42318;48.452;19.526;2023-08-08T21:40:24;98461.84;;;22.13;59.09
56414;BME280;42318;48.452;19.526;2023-08-08T21:45:25;98470.59;;;22.15;58.94
56414;BME280;42318;48.452;19.526;2023-08-08T21:50:26;98466.78;;;22.16;58.55
56414;BME280;42318;48.452;19.526;2023-08-08T21:55:26;98472.78;;;22.13;58.91
56414;BME280;42318;48.452;19.526;2023-08-08T22:00:27;98466.22;;;22.14;59.13
56414;BME280;42318;48.452;19.526;2023-08-08T22:05:29;98467.59;;;22.17;58.81
56414;BME280;42318;48.452;19.526;2023-08-08T22:10:30;98464.59;;;22.13;58.53
56414;BME280;42318;48.452;19.526;2023-08-08T22:15:34;98465.66;;;22.12;59.16
56414;BME280;42318;48.452;19.526;2023-08-08T22:20:35;98477.69;;;22.16;58.72
56414;BME280;42318;48.452;19.526;2023-08-08T22:25:36;98470.31;;;22.12;59.19
56414;BME280;42318;48.452;19.526;2023-08-08T22:30:36;98462.94;;;22.12;58.99
56414;BME280;42318;48.452;19.526;2023-08-08T22:35:37;98458.84;;;22.15;58.93
56414;BME280;42318;48.452;19.526;2023-08-08T22:40:38;98459.63;;;22.10;58.80
56414;BME280;42318;48.452;19.526;2023-08-08T22:45:39;98461.84;;;22.13;59.42
56414;BME280;42318;48.452;19.526;2023-08-08T22:50:40;98454.75;;;22.12;58.72
56414;BME280;42318;48.452;19.526;2023-08-08T22:55:43;98462.63;;;22.09;59.07
56414;BME280;42318;48.452;19.526;2023-08-08T23:00:43;98462.94;;;22.12;59.29
56414;BME280;42318;48.452;19.526;2023-08-08T23:05:44;98458.00;;;22.09;58.95
56414;BME280;42318;48.452;19.526;2023-08-08T23:10:45;98464.53;;;22.08;58.75
56414;BME280;42318;48.452;19.526;2023-08-08T23:15:46;98462.38;;;22.10;58.91
56414;BME280;42318;48.452;19.526;2023-08-08T23:20:47;98457.44;;;22.07;59.22
56414;BME280;42318;48.452;19.526;2023-08-08T23:25:51;98453.09;;;22.06;58.79
56414;BME280;42318;48.452;19.526;2023-08-08T23:30:52;98451.44;;;22.10;59.04
56414;BME280;42318;48.452;19.526;2023-08-08T23:35:53;98452.25;;;22.06;58.65
56414;BME280;42318;48.452;19.526;2023-08-08T23:40:53;98458.28;;;22.08;58.99
56414;BME280;42318;48.452;19.526;2023-08-08T23:45:55;98441.91;;;22.08;58.93
56414;BME280;42318;48.452;19.526;2023-08-08T23:50:55;98439.72;;;22.05;58.75
56414;BME280;42318;48.452;19.526;2023-08-08T23:55:56;98433.97;;;22.06;59.21
